createdAt,value
2024-03-06T00:00:54.850Z,1.65
2024-03-06T00:01:54.926Z,1.67
2024-03-06T00:02:54.834Z,1.64
2024-03-06T00:03:54.839Z,1.65
2024-03-06T00:04:54.893Z,1.63
2024-03-06T00:05:54.829Z,1.64
2024-03-06T00:06:54.842Z,1.64
2024-03-06T00:07:54.875Z,1.62
2024-03-06T00:08:54.879Z,1.62
2024-03-06T00:09:54.837Z,1.61
2024-03-06T00:10:54.882Z,1.63
2024-03-06T00:11:54.903Z,1.63
2024-03-06T00:12:54.859Z,1.63
2024-03-06T00:13:54.871Z,1.60
2024-03-06T00:14:54.886Z,1.65
2024-03-06T00:15:54.850Z,1.60
2024-03-06T00:16:54.880Z,1.59
2024-03-06T00:17:54.949Z,1.63
2024-03-06T00:18:54.857Z,1.58
2024-03-06T00:19:54.872Z,1.60
2024-03-06T00:20:54.894Z,1.59
2024-03-06T00:21:54.867Z,1.60
2024-03-06T00:22:54.864Z,1.58
2024-03-06T00:23:54.886Z,1.60
2024-03-06T00:24:54.878Z,1.61
2024-03-06T00:25:54.917Z,1.60
2024-03-06T00:26:54.899Z,1.58
2024-03-06T00:27:54.872Z,1.56
2024-03-06T00:28:54.929Z,1.56
2024-03-06T00:29:54.881Z,1.56
2024-03-06T00:30:54.898Z,1.56
2024-03-06T00:31:54.921Z,1.54
2024-03-06T00:32:54.950Z,1.56
2024-03-06T00:33:54.886Z,1.56
2024-03-06T00:34:54.936Z,1.54
2024-03-06T00:35:54.917Z,1.55
2024-03-06T00:36:54.896Z,1.54
2024-03-06T00:37:54.957Z,1.51
2024-03-06T00:38:54.900Z,1.54
2024-03-06T00:40:55.224Z,1.52
2024-03-06T00:41:54.894Z,1.56
2024-03-06T00:42:54.899Z,1.61
2024-03-06T00:43:54.916Z,1.65
2024-03-06T00:44:54.904Z,1.72
2024-03-06T00:45:54.913Z,1.70
2024-03-06T00:46:54.954Z,1.70
2024-03-06T00:47:55.000Z,1.65
2024-03-06T00:48:54.928Z,1.62
2024-03-06T00:49:54.964Z,1.59
2024-03-06T00:50:54.948Z,1.59
2024-03-06T00:51:54.926Z,1.56
2024-03-06T00:52:54.937Z,1.56
2024-03-06T00:53:54.938Z,1.57
2024-03-06T00:54:54.922Z,1.53
2024-03-06T00:55:54.992Z,1.56
2024-03-06T00:56:54.959Z,1.52
2024-03-06T00:57:54.929Z,1.45
2024-03-06T00:58:54.955Z,1.53
2024-03-06T00:59:54.949Z,1.51
2024-03-06T01:00:55.010Z,1.51
2024-03-06T01:01:54.997Z,1.50
2024-03-06T01:02:54.959Z,1.49
2024-03-06T01:03:54.963Z,1.49
2024-03-06T01:04:54.973Z,1.51
2024-03-06T01:05:54.949Z,1.48
2024-03-06T01:06:54.940Z,1.45
2024-03-06T01:07:55.026Z,1.46
2024-03-06T01:08:54.971Z,1.44
2024-03-06T01:09:54.976Z,1.43
2024-03-06T01:10:54.971Z,1.46
2024-03-06T01:11:54.962Z,1.45
2024-03-06T01:12:54.958Z,1.44
2024-03-06T01:13:55.020Z,1.41
2024-03-06T01:14:54.956Z,1.45
2024-03-06T01:15:54.959Z,1.43
2024-03-06T01:16:54.991Z,1.42
2024-03-06T01:17:55.007Z,1.45
2024-03-06T01:18:54.958Z,1.43
2024-03-06T01:19:55.059Z,1.40
2024-03-06T01:20:54.973Z,1.41
2024-03-06T01:21:54.973Z,1.41
2024-03-06T01:22:55.017Z,1.42
2024-03-06T01:23:54.962Z,1.41
2024-03-06T01:24:54.969Z,1.41
2024-03-06T01:25:55.012Z,1.42
2024-03-06T01:26:54.963Z,1.38
2024-03-06T01:27:54.954Z,1.40
2024-03-06T01:28:55.030Z,1.39
2024-03-06T01:29:54.962Z,1.39
2024-03-06T01:30:54.964Z,1.38
2024-03-06T01:31:55.093Z,1.37
2024-03-06T01:32:54.985Z,1.40
2024-03-06T01:33:54.966Z,1.38
2024-03-06T01:34:55.031Z,1.35
2024-03-06T01:35:54.972Z,1.36
2024-03-06T01:36:54.986Z,1.39
2024-03-06T01:37:54.997Z,1.36
2024-03-06T01:38:54.981Z,1.35
2024-03-06T01:39:54.989Z,1.36
2024-03-06T01:40:55.036Z,1.36
2024-03-06T01:41:54.984Z,1.38
2024-03-06T01:42:54.995Z,1.36
2024-03-06T01:43:55.071Z,1.37
2024-03-06T01:44:54.982Z,1.35
2024-03-06T01:45:55.362Z,1.34
2024-03-06T01:46:55.036Z,1.34
2024-03-06T01:47:55.109Z,1.35
2024-03-06T01:48:54.998Z,1.34
2024-03-06T01:49:55.054Z,1.33
2024-03-06T01:50:55.029Z,1.34
2024-03-06T01:51:54.995Z,1.34
2024-03-06T01:52:55.029Z,1.31
2024-03-06T01:53:55.031Z,1.31
2024-03-06T01:54:54.998Z,1.34
2024-03-06T01:55:55.108Z,1.32
2024-03-06T01:56:55.010Z,1.33
2024-03-06T01:57:55.006Z,1.31
2024-03-06T01:58:58.256Z,1.30
2024-03-06T01:59:55.033Z,1.31
2024-03-06T02:00:55.021Z,1.31
2024-03-06T02:01:55.053Z,1.30
2024-03-06T02:02:55.064Z,1.31
2024-03-06T02:03:55.015Z,1.31
2024-03-06T02:04:55.048Z,1.31
2024-03-06T02:05:55.020Z,1.30
2024-03-06T02:06:55.017Z,1.32
2024-03-06T02:07:55.112Z,1.29
2024-03-06T02:08:55.018Z,1.31
2024-03-06T02:09:55.027Z,1.29
2024-03-06T02:10:55.060Z,1.29
2024-03-06T02:11:55.038Z,1.29
2024-03-06T02:12:55.033Z,1.29
2024-03-06T02:13:55.062Z,1.29
2024-03-06T02:14:55.066Z,1.29
2024-03-06T02:15:55.055Z,1.27
2024-03-06T02:16:55.113Z,1.28
2024-03-06T02:17:55.102Z,1.28
2024-03-06T02:18:55.096Z,1.27
2024-03-06T02:19:55.086Z,1.28
2024-03-06T02:20:55.074Z,1.27
2024-03-06T02:21:55.048Z,1.25
2024-03-06T02:22:55.072Z,1.26
2024-03-06T02:23:55.058Z,1.25
2024-03-06T02:24:55.041Z,1.23
2024-03-06T02:25:55.064Z,1.25
2024-03-06T02:26:55.048Z,1.23
2024-03-06T02:27:55.063Z,1.25
2024-03-06T02:28:55.182Z,1.25
2024-03-06T02:29:55.051Z,1.23
2024-03-06T02:30:55.056Z,1.22
2024-03-06T02:31:55.110Z,1.25
2024-03-06T02:32:55.149Z,1.23
2024-03-06T02:33:55.058Z,1.24
2024-03-06T02:34:55.115Z,1.22
2024-03-06T02:35:55.079Z,1.23
2024-03-06T02:36:55.077Z,1.22
2024-03-06T02:37:55.127Z,1.23
2024-03-06T02:38:55.080Z,1.24
2024-03-06T02:39:55.095Z,1.23
2024-03-06T02:40:55.135Z,1.22
2024-03-06T02:41:55.090Z,1.20
2024-03-06T02:42:55.087Z,1.22
2024-03-06T02:43:55.141Z,1.22
2024-03-06T02:44:55.102Z,1.22
2024-03-06T02:45:55.101Z,1.19
2024-03-06T02:46:55.148Z,1.21
2024-03-06T02:47:55.132Z,1.22
2024-03-06T02:48:55.103Z,1.21
2024-03-06T02:49:55.150Z,1.20
2024-03-06T02:50:55.107Z,1.22
2024-03-06T02:51:55.138Z,1.20
2024-03-06T02:52:55.153Z,1.20
2024-03-06T02:53:55.120Z,1.19
2024-03-06T02:54:55.126Z,1.18
2024-03-06T02:55:55.205Z,1.20
2024-03-06T02:56:55.100Z,1.19
2024-03-06T02:57:55.118Z,1.19
2024-03-06T02:58:55.145Z,1.18
2024-03-06T02:59:55.127Z,1.18
2024-03-06T03:00:55.212Z,1.16
2024-03-06T03:01:55.159Z,1.16
2024-03-06T03:02:55.151Z,1.17
2024-03-06T03:03:55.122Z,1.17
2024-03-06T03:04:55.173Z,1.15
2024-03-06T03:05:55.138Z,1.18
2024-03-06T03:06:55.152Z,1.17
2024-03-06T03:07:55.203Z,1.15
2024-03-06T03:08:55.130Z,1.15
2024-03-06T03:09:55.151Z,1.16
2024-03-06T03:10:55.194Z,1.15
2024-03-06T03:11:55.144Z,1.17
2024-03-06T03:12:55.143Z,1.14
2024-03-06T03:13:55.209Z,1.15
2024-03-06T03:14:55.158Z,1.15
2024-03-06T03:15:55.151Z,1.14
2024-03-06T03:16:55.202Z,1.15
2024-03-06T03:17:55.211Z,1.14
2024-03-06T03:18:55.148Z,1.14
2024-03-06T03:19:55.176Z,1.13
2024-03-06T03:20:55.210Z,1.14
2024-03-06T03:21:55.163Z,1.11
2024-03-06T03:22:55.205Z,1.14
2024-03-06T03:23:55.146Z,1.14
2024-03-06T03:24:55.185Z,1.13
2024-03-06T03:25:55.229Z,1.14
2024-03-06T03:26:55.174Z,1.12
2024-03-06T03:27:55.197Z,1.11
2024-03-06T03:28:55.199Z,1.14
2024-03-06T03:29:55.192Z,1.14
2024-03-06T03:30:55.174Z,1.11
2024-03-06T03:31:55.181Z,1.13
2024-03-06T03:32:55.212Z,1.12
2024-03-06T03:33:55.196Z,1.12
2024-03-06T03:34:55.258Z,1.12
2024-03-06T03:35:55.243Z,1.11
2024-03-06T03:36:55.243Z,1.11
2024-03-06T03:37:55.290Z,1.11
2024-03-06T03:38:55.297Z,1.12
2024-03-06T03:39:55.330Z,1.11
2024-03-06T03:40:55.359Z,1.11
2024-03-06T03:41:55.374Z,1.10
2024-03-06T03:42:55.372Z,1.12
2024-03-06T03:43:55.520Z,1.11
2024-03-06T03:44:55.428Z,1.12
2024-03-06T03:45:55.461Z,1.11
2024-03-06T03:46:55.525Z,1.11
2024-03-06T03:47:55.546Z,1.09
2024-03-06T03:48:55.513Z,1.08
2024-03-06T03:50:03.485Z,1.10
2024-03-06T03:50:56.574Z,1.10
2024-03-06T03:51:55.538Z,1.10
2024-03-06T03:52:55.577Z,1.09
2024-03-06T03:53:55.570Z,1.11
2024-03-06T03:54:55.557Z,1.10
2024-03-06T03:55:55.595Z,1.09
2024-03-06T03:56:55.545Z,1.09
2024-03-06T03:57:55.550Z,1.11
2024-03-06T03:58:55.567Z,1.08
2024-03-06T03:59:55.554Z,1.09
2024-03-06T04:00:55.599Z,1.08
2024-03-06T04:01:55.624Z,1.08
2024-03-06T04:02:55.592Z,1.08
2024-03-06T04:03:55.545Z,1.08
2024-03-06T04:04:55.612Z,1.07
2024-03-06T04:05:55.570Z,1.05
2024-03-06T04:06:55.566Z,1.09
2024-03-06T04:07:55.586Z,1.07
2024-03-06T04:08:55.584Z,1.09
2024-03-06T04:09:55.569Z,1.08
2024-03-06T04:10:55.643Z,1.06
2024-03-06T04:11:55.614Z,1.06
2024-03-06T04:12:55.596Z,1.08
2024-03-06T04:13:55.610Z,1.05
2024-03-06T04:14:55.604Z,1.05
2024-03-06T04:15:55.593Z,1.03
2024-03-06T04:16:55.657Z,1.06
2024-03-06T04:18:02.858Z,0.50
2024-03-06T04:19:02.856Z,0.50
2024-03-06T04:20:02.967Z,0.50
2024-03-06T04:21:02.860Z,0.50
2024-03-06T04:22:02.848Z,0.50
2024-03-06T04:23:02.924Z,0.51
2024-03-06T04:24:02.842Z,0.50
2024-03-06T04:25:02.851Z,0.50
2024-03-06T04:26:02.865Z,0.51
2024-03-06T04:27:02.912Z,0.51
2024-03-06T04:28:02.898Z,0.51
2024-03-06T04:29:02.868Z,0.51
2024-03-06T04:30:02.851Z,0.51
2024-03-06T04:31:10.052Z,0.50
2024-03-06T04:32:10.045Z,0.50
2024-03-06T04:33:10.091Z,0.50
2024-03-06T04:34:10.063Z,0.50
2024-03-06T04:35:10.098Z,0.50
2024-03-06T04:36:10.171Z,0.50
2024-03-06T04:37:10.047Z,0.51
2024-03-06T04:38:10.123Z,0.50
2024-03-06T04:39:10.059Z,0.51
2024-03-06T04:40:10.044Z,0.50
2024-03-06T04:41:10.113Z,0.51
2024-03-06T04:42:10.064Z,0.51
2024-03-06T04:43:10.059Z,0.50
2024-03-06T04:44:10.136Z,0.51
2024-03-06T04:45:10.058Z,0.50
2024-03-06T04:46:10.046Z,0.51
2024-03-06T04:47:10.175Z,0.51
2024-03-06T04:48:10.116Z,0.51
2024-03-06T04:49:10.065Z,0.50
2024-03-06T04:50:10.117Z,0.50
2024-03-06T04:51:10.065Z,0.52
2024-03-06T04:52:10.069Z,0.51
2024-03-06T04:53:10.084Z,0.51
2024-03-06T04:54:10.065Z,0.51
2024-03-06T04:55:10.063Z,0.51
2024-03-06T04:56:10.155Z,0.51
2024-03-06T04:57:10.097Z,0.51
2024-03-06T04:58:10.070Z,0.52
2024-03-06T04:59:10.114Z,0.51
2024-03-06T05:00:10.083Z,0.51
2024-03-06T05:01:10.108Z,0.51
2024-03-06T05:02:10.211Z,0.51
2024-03-06T05:58:13.059Z,0.53
2024-03-06T05:59:10.457Z,0.59
2024-03-06T06:00:10.476Z,0.77
2024-03-06T06:01:10.559Z,1.09
2024-03-06T06:02:10.465Z,1.53
2024-03-06T06:03:10.481Z,2.18
2024-03-06T06:04:10.489Z,1.84
2024-03-06T06:05:22.284Z,1.53
2024-03-06T06:06:11.522Z,1.39
2024-03-06T06:07:10.479Z,1.21
2024-03-06T06:08:10.578Z,1.09
2024-03-06T06:09:10.515Z,0.98
2024-03-06T06:10:10.522Z,0.92
2024-03-06T06:11:10.580Z,0.84
2024-03-06T06:12:10.499Z,0.80
2024-03-06T06:13:10.484Z,0.76
2024-03-06T06:14:10.532Z,0.71
2024-03-06T06:15:10.514Z,0.70
2024-03-06T06:16:10.498Z,0.67
2024-03-06T06:17:10.607Z,0.65
2024-03-06T06:18:10.594Z,0.64
2024-03-06T06:19:10.504Z,0.62
2024-03-06T06:20:10.546Z,0.60
2024-03-06T06:21:10.556Z,0.58
2024-03-06T06:22:10.502Z,0.58
2024-03-06T06:23:10.769Z,0.56
2024-03-06T06:24:10.684Z,0.56
2024-03-06T06:25:10.510Z,0.54
2024-03-06T06:26:10.623Z,0.53
2024-03-06T06:27:10.503Z,0.53
2024-03-06T06:28:10.541Z,0.52
2024-03-06T06:29:10.557Z,0.51
2024-03-06T06:30:10.552Z,0.51
2024-03-06T06:31:10.756Z,0.51
2024-03-06T06:32:10.618Z,0.50
2024-03-06T06:33:10.587Z,0.43
2024-03-06T06:34:10.589Z,0.39
2024-03-06T06:35:10.972Z,0.42
2024-03-06T06:36:10.623Z,0.45
2024-03-06T06:37:10.666Z,0.47
2024-03-06T06:38:10.748Z,0.52
2024-03-06T06:39:10.732Z,0.51
2024-03-06T06:40:10.970Z,0.50
2024-03-06T06:41:10.774Z,0.50
2024-03-06T06:42:10.762Z,0.51
2024-03-06T06:43:10.776Z,0.51
2024-03-06T06:44:10.872Z,0.56
2024-03-06T06:45:11.011Z,0.58
2024-03-06T06:46:10.836Z,0.63
2024-03-06T06:47:10.864Z,0.63
2024-03-06T06:48:10.979Z,0.63
2024-03-06T06:49:10.958Z,0.65
2024-03-06T06:50:11.021Z,0.64
2024-03-06T06:51:10.995Z,0.64
2024-03-06T06:52:11.055Z,0.63
2024-03-06T06:53:11.173Z,0.64
2024-03-06T06:54:11.171Z,0.62
2024-03-06T06:55:11.236Z,0.62
2024-03-06T06:56:11.316Z,0.63
2024-03-06T06:57:11.367Z,0.63
2024-03-06T06:58:11.430Z,0.63
2024-03-06T06:59:11.588Z,0.64
2024-03-06T07:00:11.597Z,0.66
2024-03-06T07:01:11.686Z,0.64
2024-03-06T07:02:11.788Z,0.64
2024-03-06T07:03:11.819Z,0.68
2024-03-06T07:04:11.868Z,0.66
2024-03-06T07:05:12.126Z,0.64
2024-03-06T07:06:12.001Z,0.66
2024-03-06T07:07:12.064Z,0.68
2024-03-06T07:08:12.168Z,0.69
2024-03-06T07:09:12.256Z,0.73
2024-03-06T07:10:12.270Z,0.75
2024-03-06T07:11:12.423Z,0.75
2024-03-06T07:12:12.452Z,0.74
2024-03-06T07:13:12.468Z,0.74
2024-03-06T07:14:12.571Z,0.73
2024-03-06T07:15:12.581Z,0.75
2024-03-06T07:16:12.635Z,0.77
2024-03-06T07:17:12.787Z,0.74
2024-03-06T07:18:12.814Z,0.75
2024-03-06T07:19:12.843Z,0.75
2024-03-06T07:20:13.029Z,0.73
2024-03-06T07:21:12.981Z,0.73
2024-03-06T07:22:13.048Z,0.74
2024-03-06T07:23:13.190Z,0.76
2024-03-06T07:24:13.129Z,0.73
2024-03-06T07:25:13.196Z,0.75
2024-03-06T07:26:13.285Z,0.75
2024-03-06T07:27:13.296Z,0.77
2024-03-06T07:28:13.387Z,0.75
2024-03-06T07:29:13.474Z,0.74
2024-03-06T07:30:14.999Z,0.75
2024-03-06T07:31:13.484Z,0.73
2024-03-06T07:32:13.593Z,0.73
2024-03-06T07:33:13.579Z,0.72
2024-03-06T07:34:13.640Z,0.69
2024-03-06T07:35:13.753Z,0.67
2024-03-06T07:36:13.716Z,0.63
2024-03-06T07:37:13.743Z,0.55
2024-03-06T07:38:13.836Z,0.50
2024-03-06T07:39:13.862Z,0.50
2024-03-06T07:40:13.939Z,0.50
2024-03-06T07:41:14.303Z,0.51
2024-03-06T07:42:13.986Z,0.50
2024-03-06T07:43:14.013Z,0.50
2024-03-06T07:44:14.087Z,0.51
2024-03-06T07:45:14.084Z,0.51
2024-03-06T07:46:14.143Z,0.50
2024-03-06T07:47:14.161Z,0.50
2024-03-06T07:48:14.206Z,0.51
2024-03-06T07:49:14.171Z,0.50
2024-03-06T07:50:14.309Z,0.50
2024-03-06T07:51:14.721Z,0.50
2024-03-06T07:52:14.364Z,0.50
2024-03-06T07:53:14.348Z,0.51
2024-03-06T07:54:14.360Z,0.50
2024-03-06T07:55:14.374Z,0.50
2024-03-06T07:56:15.344Z,0.50
2024-03-06T07:57:38.043Z,0.51
2024-03-06T07:58:14.385Z,0.52
2024-03-06T07:59:14.408Z,0.52
2024-03-06T08:00:14.379Z,0.52
2024-03-06T08:01:14.600Z,0.50
2024-03-06T08:02:14.448Z,0.47
2024-03-06T08:03:14.435Z,0.50
2024-03-06T08:04:14.393Z,0.50
2024-03-06T08:05:14.507Z,0.49
2024-03-06T08:06:14.836Z,0.51
2024-03-06T08:07:14.450Z,0.51
2024-03-06T08:08:14.479Z,0.50
2024-03-06T08:09:14.498Z,0.52
2024-03-06T08:10:14.647Z,0.50
2024-03-06T08:11:14.579Z,0.50
2024-03-06T08:12:14.465Z,0.50
2024-03-06T08:13:14.474Z,0.53
2024-03-06T08:14:14.461Z,0.51
2024-03-06T08:15:14.464Z,0.55
2024-03-06T08:16:15.327Z,0.59
2024-03-06T08:17:14.508Z,0.60
2024-03-06T08:18:14.578Z,0.64
2024-03-06T08:19:14.409Z,0.65
2024-03-06T08:20:14.481Z,0.66
2024-03-06T08:21:14.427Z,0.66
2024-03-06T08:22:14.430Z,0.67
2024-03-06T08:23:14.494Z,0.68
2024-03-06T08:24:14.421Z,0.66
2024-03-06T08:25:14.426Z,0.67
2024-03-06T08:26:14.536Z,0.67
2024-03-06T08:27:14.502Z,0.68
2024-03-06T08:28:14.502Z,0.67
2024-03-06T08:29:14.459Z,0.68
2024-03-06T08:30:14.464Z,0.68
2024-03-06T08:31:14.480Z,0.70
2024-03-06T08:32:14.596Z,0.70
2024-03-06T08:33:14.561Z,0.71
2024-03-06T08:34:14.508Z,0.72
2024-03-06T08:35:16.914Z,0.70
2024-03-06T08:36:14.529Z,0.70
2024-03-06T08:37:14.474Z,0.71
2024-03-06T08:38:14.588Z,0.73
2024-03-06T08:39:14.431Z,0.75
2024-03-06T08:40:14.445Z,0.74
2024-03-06T08:41:14.503Z,0.73
2024-03-06T08:42:14.434Z,0.73
2024-03-06T08:43:14.459Z,0.70
2024-03-06T08:44:14.494Z,0.71
2024-03-06T08:45:14.457Z,0.75
2024-03-06T08:46:14.466Z,0.73
2024-03-06T08:47:14.522Z,0.74
2024-03-06T08:48:14.469Z,0.76
2024-03-06T08:49:14.464Z,0.77
2024-03-06T08:50:14.752Z,0.77
2024-03-06T08:51:15.312Z,0.78
2024-03-06T08:52:14.476Z,0.79
2024-03-06T08:53:14.497Z,0.79
2024-03-06T08:54:15.043Z,0.81
2024-03-06T08:55:14.535Z,0.81
2024-03-06T08:56:14.670Z,0.81
2024-03-06T08:57:14.660Z,0.83
2024-03-06T08:58:14.722Z,0.84
2024-03-06T08:59:14.845Z,0.85
2024-03-06T09:00:14.878Z,0.83
2024-03-06T09:01:14.877Z,0.85
2024-03-06T09:02:14.951Z,0.85
2024-03-06T09:03:15.000Z,0.86
2024-03-06T09:04:14.995Z,0.86
2024-03-06T09:05:15.248Z,0.88
2024-03-06T09:06:15.085Z,0.89
2024-03-06T09:07:15.154Z,0.89
2024-03-06T09:08:15.187Z,0.89
2024-03-06T09:09:15.231Z,0.89
2024-03-06T09:10:15.328Z,0.91
2024-03-06T09:11:15.386Z,0.92
2024-03-06T09:12:15.325Z,0.93
2024-03-06T09:13:15.370Z,0.93
2024-03-06T09:14:15.453Z,0.93
2024-03-06T09:15:15.465Z,0.95
2024-03-06T09:16:15.456Z,0.95
2024-03-06T09:17:15.686Z,0.96
2024-03-06T09:18:15.547Z,0.95
2024-03-06T09:19:18.193Z,0.99
2024-03-06T09:20:16.419Z,1.02
2024-03-06T09:21:15.586Z,1.02
2024-03-06T09:22:15.603Z,1.02
2024-03-06T09:23:15.594Z,1.05
2024-03-06T09:24:15.579Z,1.10
2024-03-06T09:25:16.603Z,1.12
2024-03-06T09:26:15.809Z,1.25
2024-03-06T09:27:15.596Z,1.25
2024-03-06T09:28:15.566Z,1.30
2024-03-06T09:29:15.592Z,1.35
2024-03-06T09:30:15.591Z,1.39
2024-03-06T09:31:15.573Z,1.43
2024-03-06T09:32:17.849Z,1.45
2024-03-06T09:33:15.645Z,1.45
2024-03-06T09:34:15.578Z,1.46
2024-03-06T09:35:15.690Z,1.50
2024-03-06T09:36:15.628Z,1.52
2024-03-06T09:37:15.612Z,1.61
2024-03-06T09:38:17.934Z,1.67
2024-03-06T09:39:15.610Z,1.67
2024-03-06T09:40:15.620Z,1.68
2024-03-06T09:41:15.620Z,1.68
2024-03-06T09:42:15.607Z,1.71
2024-03-06T09:43:15.660Z,1.76
2024-03-06T09:44:15.665Z,1.73
2024-03-06T09:45:15.635Z,1.56
2024-03-06T09:46:15.635Z,1.52
2024-03-06T09:47:15.620Z,1.52
2024-03-06T09:48:15.681Z,1.51
2024-03-06T09:49:15.640Z,1.40
2024-03-06T09:50:15.609Z,1.36
2024-03-06T09:51:15.616Z,1.28
2024-03-06T09:52:15.604Z,1.25
2024-03-06T09:53:15.700Z,1.19
2024-03-06T09:54:18.845Z,1.14
2024-03-06T09:55:15.643Z,1.14
2024-03-06T09:56:15.650Z,1.06
2024-03-06T09:57:15.626Z,1.06
2024-03-06T09:58:15.630Z,1.01
2024-03-06T09:59:15.671Z,0.95
2024-03-06T10:00:18.614Z,0.98
2024-03-06T10:01:15.683Z,0.99
2024-03-06T10:02:15.643Z,0.99
2024-03-06T10:03:15.641Z,0.96
2024-03-06T10:04:15.613Z,0.89
2024-03-06T10:05:15.674Z,0.87
2024-03-06T10:06:15.713Z,0.84
2024-03-06T10:07:15.654Z,0.81
2024-03-06T10:08:15.674Z,0.79
2024-03-06T10:09:15.627Z,0.82
2024-03-06T10:10:15.627Z,0.81
2024-03-06T10:11:15.708Z,0.80
2024-03-06T10:12:15.724Z,0.79
2024-03-06T10:13:15.836Z,0.79
2024-03-06T10:14:15.697Z,0.80
2024-03-06T10:15:15.668Z,0.75
2024-03-06T10:16:15.677Z,0.73
2024-03-06T10:17:15.766Z,0.70
2024-03-06T10:18:15.906Z,0.70
2024-03-06T10:19:15.818Z,0.69
2024-03-06T10:20:15.896Z,0.66
2024-03-06T10:21:15.920Z,0.66
2024-03-06T10:22:16.006Z,0.63
2024-03-06T10:23:16.071Z,0.62
2024-03-06T10:24:16.091Z,0.61
2024-03-06T10:25:16.137Z,0.60
2024-03-06T10:26:16.313Z,0.58
2024-03-06T10:27:16.268Z,0.61
2024-03-06T10:28:16.405Z,0.60
2024-03-06T10:29:16.372Z,0.63
2024-03-06T10:30:16.428Z,0.66
2024-03-06T10:31:17.304Z,0.67
2024-03-06T10:32:16.629Z,0.64
2024-03-06T10:33:16.700Z,0.63
2024-03-06T10:34:16.817Z,0.64
2024-03-06T10:35:16.785Z,0.73
2024-03-06T10:36:16.758Z,0.81
2024-03-06T10:37:16.747Z,0.91
2024-03-06T10:38:16.799Z,0.98
2024-03-06T10:39:16.907Z,0.99
2024-03-06T10:40:16.869Z,0.89
2024-03-06T10:41:20.058Z,0.85
2024-03-06T10:42:18.045Z,0.86
2024-03-06T10:43:16.901Z,0.86
2024-03-06T10:44:17.396Z,0.81
2024-03-06T10:45:16.928Z,0.79
2024-03-06T10:46:16.984Z,0.75
2024-03-06T10:47:17.139Z,0.75
2024-03-06T10:48:16.992Z,0.81
2024-03-06T10:49:17.816Z,0.83
2024-03-06T10:50:16.974Z,0.79
2024-03-06T10:51:17.001Z,0.75
2024-03-06T10:52:17.106Z,0.78
2024-03-06T10:53:21.206Z,0.82
2024-03-06T10:54:18.165Z,0.82
2024-03-06T10:55:17.161Z,0.79
2024-03-06T10:56:17.184Z,0.77
2024-03-06T10:57:17.166Z,0.73
2024-03-06T10:58:17.137Z,0.71
2024-03-06T10:59:17.349Z,0.70
2024-03-06T11:00:17.127Z,0.72
2024-03-06T11:01:17.142Z,0.70
2024-03-06T11:02:17.188Z,0.66
2024-03-06T11:03:17.276Z,0.67
2024-03-06T11:04:17.344Z,0.73
2024-03-06T11:05:17.451Z,0.69
2024-03-06T11:06:17.442Z,0.70
2024-03-06T11:07:17.500Z,0.66
2024-03-06T11:08:17.680Z,0.67
2024-03-06T11:09:17.642Z,0.67
2024-03-06T11:10:17.746Z,0.63
2024-03-06T11:11:17.806Z,0.59
2024-03-06T11:12:17.936Z,0.56
2024-03-06T11:13:17.869Z,0.53
2024-03-06T11:14:18.335Z,0.53
2024-03-06T11:15:18.178Z,0.52
2024-03-06T11:16:18.083Z,0.52
2024-03-06T11:17:18.149Z,0.52
2024-03-06T11:18:18.299Z,0.50
2024-03-06T11:19:18.181Z,0.50
2024-03-06T11:20:18.210Z,0.50
2024-03-06T11:21:18.204Z,0.52
2024-03-06T11:22:18.245Z,0.51
2024-03-06T11:23:18.830Z,0.51
2024-03-06T11:24:18.235Z,0.50
2024-03-06T11:25:18.239Z,0.50
2024-03-06T11:26:18.357Z,0.50
2024-03-06T11:27:18.334Z,0.52
2024-03-06T11:28:18.305Z,0.52
2024-03-06T11:29:18.383Z,0.68
2024-03-06T11:30:19.322Z,0.79
2024-03-06T11:31:19.338Z,0.81
2024-03-06T11:32:18.959Z,0.76
2024-03-06T11:33:18.587Z,0.78
2024-03-06T11:34:18.541Z,0.75
2024-03-06T11:35:18.637Z,0.70
2024-03-06T11:36:18.648Z,0.68
2024-03-06T11:37:18.684Z,0.59
2024-03-06T11:38:18.827Z,0.57
2024-03-06T11:39:18.811Z,0.58
2024-03-06T11:40:18.818Z,0.62
2024-03-06T11:41:20.487Z,0.66
2024-03-06T11:42:19.032Z,0.65
2024-03-06T11:43:19.088Z,0.66
2024-03-06T11:44:19.191Z,0.68
2024-03-06T11:45:19.266Z,0.72
2024-03-06T11:46:19.292Z,0.71
2024-03-06T11:47:19.394Z,0.73
2024-03-06T11:48:19.603Z,0.78
2024-03-06T11:49:19.495Z,0.78
2024-03-06T11:50:19.768Z,0.75
2024-03-06T11:51:19.673Z,0.83
2024-03-06T11:52:19.873Z,0.86
2024-03-06T11:53:19.815Z,0.89
2024-03-06T11:54:19.793Z,0.91
2024-03-06T11:55:19.897Z,0.92
2024-03-06T11:56:19.974Z,0.87
2024-03-06T11:57:20.003Z,0.94
2024-03-06T11:58:20.074Z,0.91
2024-03-06T11:59:20.172Z,1.08
2024-03-06T12:00:20.240Z,1.18
2024-03-06T12:01:20.391Z,1.19
2024-03-06T12:02:20.432Z,1.17
2024-03-06T12:03:20.381Z,1.09
2024-03-06T12:04:20.434Z,1.14
2024-03-06T12:05:20.591Z,1.20
2024-03-06T12:06:20.612Z,1.13
2024-03-06T12:07:20.597Z,1.14
2024-03-06T12:08:20.693Z,1.14
2024-03-06T12:09:20.713Z,1.10
2024-03-06T12:10:20.824Z,1.17
2024-03-06T12:11:20.918Z,1.16
2024-03-06T12:12:20.929Z,1.14
2024-03-06T12:13:20.937Z,1.11
2024-03-06T12:14:21.257Z,1.04
2024-03-06T12:15:21.127Z,1.13
2024-03-06T12:16:21.171Z,1.28
2024-03-06T12:17:21.315Z,1.38
2024-03-06T12:18:21.421Z,1.44
2024-03-06T12:19:21.276Z,1.52
2024-03-06T12:20:21.405Z,1.53
2024-03-06T12:21:21.425Z,1.58
2024-03-06T12:22:22.118Z,1.60
2024-03-06T12:23:21.476Z,1.65
2024-03-06T12:24:21.483Z,1.70
2024-03-06T12:25:21.518Z,1.75
2024-03-06T12:26:21.574Z,1.77
2024-03-06T12:27:21.598Z,1.79
2024-03-06T12:28:21.625Z,1.86
2024-03-06T12:29:21.760Z,1.82
2024-03-06T12:30:21.713Z,1.85
2024-03-06T12:31:21.754Z,1.87
2024-03-06T12:32:22.002Z,1.95
2024-03-06T12:33:21.832Z,1.96
2024-03-06T12:34:21.875Z,1.95
2024-03-06T12:35:21.976Z,1.99
2024-03-06T12:36:21.943Z,2.03
2024-03-06T12:37:21.959Z,2.00
2024-03-06T12:38:22.059Z,2.05
2024-03-06T12:39:22.052Z,2.02
2024-03-06T12:40:22.071Z,2.06
2024-03-06T12:41:22.148Z,2.06
2024-03-06T12:42:22.155Z,2.09
2024-03-06T12:43:22.238Z,2.11
2024-03-06T12:44:22.342Z,2.15
2024-03-06T12:45:22.299Z,2.14
2024-03-06T12:46:22.362Z,2.10
2024-03-06T12:47:22.501Z,2.15
2024-03-06T12:48:22.498Z,2.13
2024-03-06T12:49:22.546Z,2.13
2024-03-06T12:50:22.650Z,2.10
2024-03-06T12:51:22.630Z,2.18
2024-03-06T12:52:22.707Z,2.19
2024-03-06T12:53:22.789Z,2.18
2024-03-06T12:54:22.812Z,2.18
2024-03-06T12:55:22.858Z,2.16
2024-03-06T12:56:22.915Z,2.23
2024-03-06T12:57:22.973Z,2.25
2024-03-06T12:58:22.995Z,2.20
2024-03-06T12:59:23.088Z,2.20
2024-03-06T13:00:23.134Z,2.20
2024-03-06T13:01:23.244Z,2.19
2024-03-06T13:02:23.334Z,2.24
2024-03-06T13:03:23.319Z,2.25
2024-03-06T13:04:23.349Z,2.19
2024-03-06T13:05:23.452Z,2.24
2024-03-06T13:06:23.477Z,2.19
2024-03-06T13:07:23.513Z,2.19
2024-03-06T13:08:23.593Z,2.25
2024-03-06T13:09:23.645Z,2.23
2024-03-06T13:10:23.785Z,2.24
2024-03-06T13:11:23.900Z,2.26
2024-03-06T13:12:23.867Z,2.21
2024-03-06T13:13:23.905Z,2.26
2024-03-06T13:14:23.954Z,2.27
2024-03-06T13:15:23.975Z,2.26
2024-03-06T13:16:24.042Z,2.25
2024-03-06T13:17:24.187Z,2.25
2024-03-06T13:18:24.261Z,2.30
2024-03-06T13:19:24.240Z,2.25
2024-03-06T13:20:24.301Z,2.33
2024-03-06T13:21:24.372Z,2.28
2024-03-06T13:22:24.435Z,2.31
2024-03-06T13:23:24.554Z,2.36
2024-03-06T13:24:24.560Z,2.42
2024-03-06T13:25:24.678Z,2.41
2024-03-06T13:26:24.717Z,2.43
2024-03-06T13:27:24.797Z,2.47
2024-03-06T13:28:24.916Z,2.48
2024-03-06T13:29:24.912Z,2.42
2024-03-06T13:30:24.966Z,2.67
2024-03-06T13:31:25.048Z,2.68
2024-03-06T13:32:25.185Z,2.60
2024-03-06T13:33:25.171Z,2.65
2024-03-06T13:34:25.241Z,2.71
2024-03-06T13:35:25.321Z,2.63
2024-03-06T13:36:25.366Z,2.70
2024-03-06T13:37:25.439Z,2.94
2024-03-06T13:38:25.513Z,3.20
2024-03-06T13:39:25.568Z,3.19
2024-03-06T13:40:25.630Z,3.21
2024-03-06T13:41:28.585Z,3.41
2024-03-06T13:42:25.751Z,3.69
2024-03-06T13:43:25.714Z,3.74
2024-03-06T13:44:25.776Z,3.88
2024-03-06T13:45:25.831Z,4.25
2024-03-06T13:46:25.698Z,4.45
2024-03-06T13:47:25.832Z,4.48
2024-03-06T13:48:25.734Z,4.82
2024-03-06T13:49:25.720Z,4.81
2024-03-06T13:50:25.737Z,5.02
2024-03-06T13:51:25.714Z,4.85
2024-03-06T13:52:25.707Z,4.91
2024-03-06T13:53:25.748Z,4.98
2024-03-06T13:54:25.714Z,4.96
2024-03-06T13:55:25.727Z,4.93
2024-03-06T13:56:25.736Z,4.84
2024-03-06T13:57:25.723Z,4.86
2024-03-06T13:58:25.740Z,4.90
2024-03-06T13:59:25.761Z,4.95
2024-03-06T14:00:25.730Z,4.78
2024-03-06T14:01:25.790Z,4.90
2024-03-06T14:02:25.733Z,4.77
2024-03-06T14:03:25.720Z,4.85
2024-03-06T14:04:25.747Z,4.74
2024-03-06T14:05:25.813Z,4.75
2024-03-06T14:06:25.748Z,4.73
2024-03-06T14:07:25.792Z,4.70
2024-03-06T14:08:25.910Z,4.68
2024-03-06T14:09:25.892Z,4.59
2024-03-06T14:10:25.958Z,4.56
2024-03-06T14:11:26.145Z,4.46
2024-03-06T14:12:27.909Z,4.45
2024-03-06T14:13:26.393Z,4.56
2024-03-06T14:14:26.600Z,4.48
2024-03-06T14:15:26.203Z,4.48